Time;durP1;ratioP1;P1;durP2;ratioP2;P2;SDS_P1;SDS_P2;PMS_P1;PMS_P2;Temp;Humidity;BMP_temperature;BMP_pressure;BME280_temperature;BME280_humidity;BME280_pressure;Samples;Min_cycle;Max_cycle;Signal;HPM_P1;HPM_P2
2021/07/04 00:02:22;;;;;;;6.00;5.50;;;;;;;20.42;58.81;96500.25;4985319;28;20777;-61
2021/07/04 00:04:47;;;;;;;6.38;5.57;;;;;;;20.32;58.64;96466.81;4986754;28;20030;-61
2021/07/04 00:07:13;;;;;;;6.40;5.45;;;;;;;19.64;60.13;96410.16;4984143;28;20050;-62
2021/07/04 00:09:39;;;;;;;6.97;6.20;;;;;;;19.99;61.38;96504.72;4986271;28;20418;-61
2021/07/04 00:12:06;;;;;;;7.05;6.45;;;;;;;20.14;60.56;96505.94;4984694;28;20046;-61
2021/07/04 00:14:32;;;;;;;5.35;4.95;;;;;;;20.20;60.42;96504.16;4984448;28;20057;-65
2021/07/04 00:16:57;;;;;;;6.25;5.82;;;;;;;20.17;60.52;96503.00;4984217;28;20093;-63
2021/07/04 00:19:23;;;;;;;7.72;5.50;;;;;;;19.86;61.68;96467.34;4986092;28;20551;-60
2021/07/04 00:21:49;;;;;;;6.32;5.45;;;;;;;19.96;62.38;96500.00;4984653;28;20592;-61
2021/07/04 00:24:15;;;;;;;6.47;5.85;;;;;;;19.95;61.80;96487.19;4985870;28;20344;-61
2021/07/04 00:26:41;;;;;;;6.45;5.78;;;;;;;19.94;62.19;96496.84;4984601;28;20415;-61
2021/07/04 00:29:06;;;;;;;9.05;6.55;;;;;;;19.93;62.28;96495.28;4984097;28;20812;-60
2021/07/04 00:31:33;;;;;;;7.07;5.82;;;;;;;19.93;62.50;96489.66;4983997;28;20044;-61
2021/07/04 00:33:59;;;;;;;7.10;6.22;;;;;;;19.53;62.45;96425.31;4994800;28;20100;-61
2021/07/04 00:36:24;;;;;;;6.13;5.60;;;;;;;19.86;62.87;96490.63;4983968;28;20030;-62
2021/07/04 00:38:50;;;;;;;6.28;5.68;;;;;;;19.72;63.36;96462.13;4985819;28;20639;-63
2021/07/04 00:41:15;;;;;;;6.55;5.95;;;;;;;19.96;62.15;96506.41;4985604;28;20117;-60
2021/07/04 00:43:42;;;;;;;7.03;6.40;;;;;;;19.88;62.98;96476.94;4983998;28;20413;-60
2021/07/04 00:46:08;;;;;;;8.52;6.45;;;;;;;19.94;63.14;96491.22;4983405;28;20035;-63
2021/07/04 00:48:34;;;;;;;6.35;5.85;;;;;;;20.02;62.77;96481.34;4983645;28;20034;-62
2021/07/04 00:50:59;;;;;;;8.23;6.72;;;;;;;19.87;62.20;96458.47;4983559;28;20044;-60
2021/07/04 00:53:25;;;;;;;7.55;6.85;;;;;;;19.79;64.01;96478.81;4983116;28;20027;-60
2021/07/04 00:55:50;;;;;;;8.27;7.47;;;;;;;19.98;63.48;96480.66;4985539;28;20037;-61
2021/07/04 00:58:17;;;;;;;7.32;6.72;;;;;;;20.00;63.82;96464.13;4984029;28;20567;-61
2021/07/04 01:00:44;;;;;;;7.75;6.57;;;;;;;20.05;62.76;96469.19;4985756;28;20038;-61
2021/07/04 01:03:09;;;;;;;6.93;6.32;;;;;;;20.01;63.02;96452.44;4985005;28;20038;-61
2021/07/04 01:05:38;;;;;;;7.00;5.97;;;;;;;20.12;62.89;96463.38;4983422;28;20041;-60
2021/07/04 01:08:06;;;;;;;8.82;7.93;;;;;;;20.03;63.58;96477.31;4985308;28;20049;-61
2021/07/04 01:10:33;;;;;;;7.55;6.50;;;;;;;20.07;63.91;96467.53;4983340;28;20508;-62
2021/07/04 01:13:00;;;;;;;6.68;6.07;;;;;;;19.96;64.16;96466.25;4984879;28;20498;-61
2021/07/04 01:15:26;;;;;;;6.97;6.35;;;;;;;19.80;64.10;96463.50;4985333;28;20038;-62
2021/07/04 01:17:55;;;;;;;6.82;6.13;;;;;;;19.95;64.37;96470.31;4985159;28;20050;-61
2021/07/04 01:20:23;;;;;;;7.05;6.38;;;;;;;19.89;64.85;96455.22;4983663;28;20052;-61
2021/07/04 01:22:54;;;;;;;6.90;6.20;;;;;;;19.76;65.54;96474.06;4983362;28;20053;-60
2021/07/04 01:25:20;;;;;;;6.57;6.05;;;;;;;19.74;65.49;96466.09;4983283;28;20568;-61
2021/07/04 01:27:45;;;;;;;8.07;6.07;;;;;;;19.77;65.63;96476.44;4983085;28;20065;-61
2021/07/04 01:30:11;;;;;;;7.28;6.53;;;;;;;19.68;65.29;96472.69;4984265;28;20034;-60
2021/07/04 01:32:37;;;;;;;6.80;5.60;;;;;;;19.71;65.42;96471.81;4983101;28;20084;-60
2021/07/04 01:35:03;;;;;;;6.95;6.35;;;;;;;19.12;65.25;96413.97;4983394;28;20074;-61
2021/07/04 01:37:29;;;;;;;8.68;5.75;;;;;;;19.17;66.37;96427.47;4984719;28;20046;-63
2021/07/04 01:39:54;;;;;;;6.57;5.90;;;;;;;19.45;65.59;96477.31;4983129;28;20066;-61
2021/07/04 01:42:20;;;;;;;6.88;6.32;;;;;;;19.44;65.37;96480.56;4982810;28;20050;-60
2021/07/04 01:44:45;;;;;;;6.45;5.90;;;;;;;19.34;65.66;96476.81;4984898;28;20088;-61
2021/07/04 01:47:11;;;;;;;8.27;6.47;;;;;;;19.01;65.72;96430.31;4982702;28;20038;-60
2021/07/04 01:49:36;;;;;;;7.05;6.45;;;;;;;19.19;66.39;96469.94;4984152;28;20464;-63
2021/07/04 01:52:02;;;;;;;6.60;6.10;;;;;;;18.97;66.85;96474.50;4984556;28;20035;-61
2021/07/04 01:54:28;;;;;;;8.95;7.35;;;;;;;18.57;69.77;96478.72;4982963;28;20138;-61
2021/07/04 01:56:54;;;;;;;8.23;7.50;;;;;;;18.82;68.76;96472.50;4984683;28;20177;-61
2021/07/04 01:59:19;;;;;;;6.97;6.43;;;;;;;18.84;68.93;96470.06;4999104;28;20033;-61
2021/07/04 02:01:44;;;;;;;7.00;6.30;;;;;;;18.49;69.20;96421.19;4984261;28;20088;-61
2021/07/04 02:04:10;;;;;;;6.32;5.82;;;;;;;18.80;68.38;96477.75;4982784;28;20041;-62
2021/07/04 02:06:35;;;;;;;8.73;5.85;;;;;;;18.66;66.99;96441.63;4982602;28;20049;-60
2021/07/04 02:09:01;;;;;;;9.60;6.30;;;;;;;18.50;67.57;96414.34;4982455;28;20030;-60
2021/07/04 02:11:27;;;;;;;6.63;6.13;;;;;;;18.33;68.18;96384.69;4984211;28;20035;-60
2021/07/04 02:13:52;;;;;;;7.90;7.20;;;;;;;18.78;67.64;96461.34;4984033;28;20042;-63
2021/07/04 02:16:18;;;;;;;7.88;7.18;;;;;;;18.57;67.76;96428.22;4984478;28;20042;-59
2021/07/04 02:18:44;;;;;;;10.18;7.57;;;;;;;18.43;70.96;96493.03;4982939;28;20197;-60
2021/07/04 02:21:10;;;;;;;8.80;7.70;;;;;;;16.01;71.79;96167.66;4982432;28;20050;-61
2021/07/04 02:23:36;;;;;;;8.43;7.63;;;;;;;18.45;71.66;96496.22;4982388;28;20040;-62
2021/07/04 02:26:02;;;;;;;8.70;7.85;;;;;;;18.46;71.78;96499.81;4982193;28;20039;-62
2021/07/04 02:28:30;;;;;;;7.80;6.93;;;;;;;18.11;73.65;96498.53;4982640;28;20038;-61
2021/07/04 02:30:57;;;;;;;8.55;7.15;;;;;;;17.90;74.80;96496.16;4982488;28;20050;-61
2021/07/04 02:33:24;;;;;;;8.18;7.40;;;;;;;18.05;74.34;96497.47;4999014;28;20022;-61
2021/07/04 02:35:55;;;;;;;7.93;6.85;;;;;;;17.60;75.43;96515.97;4984487;28;20268;-60
2021/07/04 02:38:21;;;;;;;10.82;6.65;;;;;;;17.11;77.56;96460.84;4982429;28;20047;-61
2021/07/04 02:40:48;;;;;;;8.40;7.20;;;;;;;17.64;76.81;96511.13;4982269;28;20039;-60
2021/07/04 02:43:18;;;;;;;7.70;7.03;;;;;;;17.72;76.84;96502.13;4983662;28;20088;-61
2021/07/04 02:45:45;;;;;;;7.40;6.50;;;;;;;17.87;75.43;96511.03;4982269;28;20054;-62
2021/07/04 02:48:11;;;;;;;7.38;6.72;;;;;;;17.97;74.89;96507.25;4981711;28;20520;-60
2021/07/04 02:50:39;;;;;;;8.43;6.63;;;;;;;17.98;73.88;96514.44;4982509;28;20182;-61
2021/07/04 02:53:05;;;;;;;8.20;6.47;;;;;;;18.06;72.48;96507.44;4982634;28;20042;-61
2021/07/04 02:55:30;;;;;;;7.63;6.93;;;;;;;18.04;72.82;96518.31;4982709;28;20030;-61
2021/07/04 02:57:56;;;;;;;7.90;7.00;;;;;;;17.59;72.81;96458.38;4982488;28;20063;-61
2021/07/04 03:00:24;;;;;;;8.02;6.88;;;;;;;18.04;72.27;96535.13;4983801;28;20528;-61
2021/07/04 03:02:50;;;;;;;7.45;6.72;;;;;;;18.13;72.19;96526.13;4998648;28;20039;-60
2021/07/04 03:05:16;;;;;;;9.70;7.13;;;;;;;18.11;71.92;96540.59;4983769;28;20031;-60
2021/07/04 03:07:43;;;;;;;6.60;6.00;;;;;;;18.07;71.22;96523.03;4981857;28;20041;-61
2021/07/04 03:10:11;;;;;;;8.93;6.45;;;;;;;18.12;71.39;96542.16;4982197;28;20030;-61
2021/07/04 03:12:37;;;;;;;7.45;6.70;;;;;;;17.67;75.59;96543.88;4982106;28;20038;-62
2021/07/04 03:15:07;;;;;;;8.52;7.10;;;;;;;16.93;79.71;96549.91;4982506;28;20030;-62
2021/07/04 03:17:33;;;;;;;9.35;6.85;;;;;;;16.66;81.95;96552.69;4984169;28;20093;-61
2021/07/04 03:19:59;;;;;;;9.40;7.40;;;;;;;16.46;81.39;96482.72;4985686;28;20073;-61
2021/07/04 03:22:24;;;;;;;9.13;7.32;;;;;;;17.19;80.42;96546.28;4985323;28;20042;-63
2021/07/04 03:24:50;;;;;;;7.80;6.93;;;;;;;17.48;78.78;96550.22;4985665;28;20077;-61
2021/07/04 03:27:15;;;;;;;9.07;6.70;;;;;;;17.74;76.50;96566.13;5001639;28;20034;-63
2021/07/04 03:29:41;;;;;;;8.30;7.28;;;;;;;17.33;75.47;96450.84;4985471;28;20030;-61
2021/07/04 03:32:07;;;;;;;7.00;6.30;;;;;;;18.13;75.80;96559.78;4986823;28;20046;-62
2021/07/04 03:34:33;;;;;;;7.35;6.57;;;;;;;18.26;75.76;96569.91;4987105;28;20042;-61
2021/07/04 03:36:59;;;;;;;7.22;6.40;;;;;;;18.25;75.15;96557.13;4987274;28;20062;-61
2021/07/04 03:39:24;;;;;;;7.55;6.78;;;;;;;18.43;74.78;96551.94;4986818;28;20081;-62
2021/07/04 03:41:50;;;;;;;9.07;6.68;;;;;;;18.62;73.48;96559.53;4986673;28;20100;-63
2021/07/04 03:44:16;;;;;;;9.20;6.90;;;;;;;18.04;72.74;96459.44;4986729;28;20084;-63
2021/07/04 03:46:42;;;;;;;8.73;7.07;;;;;;;18.56;71.89;96516.38;4984752;28;20148;-63
2021/07/04 03:49:08;;;;;;;9.07;7.70;;;;;;;19.01;70.79;96570.69;4984805;28;20073;-63
2021/07/04 03:51:33;;;;;;;8.27;7.50;;;;;;;18.99;70.56;96556.28;4984671;28;20604;-62
2021/07/04 03:53:59;;;;;;;7.30;6.70;;;;;;;19.05;70.72;96553.72;4986732;28;20104;-63
2021/07/04 03:56:24;;;;;;;7.65;6.95;;;;;;;19.17;69.43;96553.06;4986246;28;20034;-63
2021/07/04 03:58:50;;;;;;;7.40;6.63;;;;;;;18.73;69.48;96487.13;4984560;28;20102;-61
2021/07/04 04:01:22;;;;;;;9.02;7.25;;;;;;;18.79;69.34;96510.66;4986322;28;20505;-61
2021/07/04 04:03:49;;;;;;;7.65;6.85;;;;;;;19.32;68.50;96560.72;4984513;28;20390;-62
2021/07/04 04:06:15;;;;;;;8.00;7.28;;;;;;;19.52;67.35;96561.41;4984147;28;20034;-63
2021/07/04 04:08:43;;;;;;;7.25;6.60;;;;;;;19.62;67.69;96567.22;4984506;28;20033;-60
2021/07/04 04:11:09;;;;;;;9.65;8.80;;;;;;;18.88;74.71;96578.19;4985944;28;20046;-61
2021/07/04 04:13:35;;;;;;;8.20;7.40;;;;;;;18.39;76.71;96584.88;4986058;28;20038;-63
2021/07/04 04:16:01;;;;;;;8.90;8.10;;;;;;;18.17;76.98;96561.28;4984427;28;20528;-61
2021/07/04 04:18:27;;;;;;;9.43;8.27;;;;;;;18.70;75.99;96580.59;4985498;28;20042;-62
2021/07/04 04:20:52;;;;;;;8.77;8.00;;;;;;;18.65;74.16;96521.41;4984274;28;20133;-61
2021/07/04 04:23:18;;;;;;;8.27;7.57;;;;;;;19.41;72.38;96577.72;4984480;28;20635;-61
2021/07/04 04:25:43;;;;;;;7.68;6.97;;;;;;;19.77;70.98;96576.81;4984391;28;20042;-63
2021/07/04 04:28:10;;;;;;;7.55;6.93;;;;;;;20.02;69.57;96582.56;4983204;28;20069;-61
2021/07/04 04:30:36;;;;;;;10.32;8.05;;;;;;;20.06;71.52;96586.09;4986378;28;20034;-62
2021/07/04 04:33:02;;;;;;;8.75;7.80;;;;;;;20.23;69.61;96587.66;4985469;28;20038;-62
2021/07/04 04:35:28;;;;;;;12.98;7.25;;;;;;;20.43;68.99;96585.44;4984123;28;20546;-64
2021/07/04 04:37:54;;;;;;;9.25;8.35;;;;;;;20.66;66.82;96576.75;4985686;28;20508;-61
2021/07/04 04:40:20;;;;;;;7.57;6.82;;;;;;;20.83;67.76;96581.03;4983936;28;20041;-62
2021/07/04 04:42:45;;;;;;;7.78;6.97;;;;;;;20.94;65.58;96575.88;5000070;28;20030;-62
2021/07/04 04:45:11;;;;;;;7.65;6.90;;;;;;;21.28;63.71;96578.03;4985269;28;20030;-63
2021/07/04 04:47:37;;;;;;;8.93;7.05;;;;;;;21.66;62.06;96565.47;4999984;28;20469;-61
2021/07/04 04:50:05;;;;;;;9.98;7.15;;;;;;;21.97;59.20;96563.59;5000220;28;20493;-64
2021/07/04 04:52:30;;;;;;;7.85;7.00;;;;;;;22.05;59.01;96581.84;4984983;28;20073;-63
2021/07/04 04:54:56;;;;;;;8.77;7.00;;;;;;;21.98;58.59;96541.84;4999913;28;20030;-62
2021/07/04 04:57:21;;;;;;;7.93;7.18;;;;;;;22.12;58.25;96539.28;4984862;28;20113;-63
2021/07/04 04:59:47;;;;;;;6.85;6.25;;;;;;;22.17;56.53;96544.34;4983404;28;20034;-62
2021/07/04 05:02:12;;;;;;;8.98;8.13;;;;;;;22.42;57.37;96586.56;4983404;28;20042;-62
2021/07/04 05:04:37;;;;;;;10.27;7.80;;;;;;;22.19;60.93;96570.06;4985537;28;20030;-64
2021/07/04 05:07:03;;;;;;;8.50;7.68;;;;;;;22.01;62.18;96550.16;4982994;28;20089;-63
2021/07/04 05:09:29;;;;;;;10.00;6.38;;;;;;;21.87;57.42;96511.19;4984945;28;20053;-61
2021/07/04 05:11:55;;;;;;;7.57;6.78;;;;;;;22.04;57.12;96546.44;4985067;28;20046;-63
2021/07/04 05:14:20;;;;;;;7.45;6.75;;;;;;;22.11;58.41;96529.22;4984918;28;20030;-63
2021/07/04 05:16:46;;;;;;;7.25;6.50;;;;;;;22.61;55.86;96578.22;4983280;28;20080;-61
2021/07/04 05:19:15;;;;;;;7.05;6.35;;;;;;;22.81;55.95;96587.16;4999230;28;20125;-62
2021/07/04 05:21:41;;;;;;;8.13;7.10;;;;;;;22.67;57.83;96570.75;4985145;28;20058;-62
2021/07/04 05:24:12;;;;;;;7.07;6.38;;;;;;;22.79;55.71;96578.38;4982880;28;20098;-60
2021/07/04 05:26:38;;;;;;;6.55;6.13;;;;;;;23.01;54.94;96584.75;4999216;28;20440;-60
2021/07/04 05:29:04;;;;;;;6.65;6.13;;;;;;;22.77;55.12;96573.16;4984583;28;20069;-63
2021/07/04 05:31:30;;;;;;;6.93;6.20;;;;;;;22.87;55.90;96585.31;4998963;28;20065;-62
2021/07/04 05:33:56;;;;;;;6.75;6.25;;;;;;;23.25;54.56;96599.94;4981750;28;20042;-62
2021/07/04 05:36:21;;;;;;;6.75;6.10;;;;;;;23.29;53.06;96567.50;4981522;28;20034;-62
2021/07/04 05:38:47;;;;;;;5.82;5.38;;;;;;;23.70;51.92;96598.09;4981819;28;20084;-62
2021/07/04 05:41:14;;;;;;;6.53;6.03;;;;;;;23.86;53.03;96588.53;4982632;28;20042;-62
2021/07/04 05:43:42;;;;;;;6.88;6.40;;;;;;;22.52;50.88;96346.69;4982815;28;20030;-62
2021/07/04 05:46:08;;;;;;;6.57;6.07;;;;;;;24.17;49.01;96597.72;4982956;28;20176;-62
2021/07/04 05:48:35;;;;;;;6.45;6.05;;;;;;;24.41;47.99;96590.19;4982753;28;20121;-63
2021/07/04 05:51:01;;;;;;;6.78;6.30;;;;;;;24.40;48.16;96605.63;4982409;28;20061;-61
2021/07/04 05:53:27;;;;;;;8.70;6.55;;;;;;;24.59;48.45;96601.53;4982723;28;20073;-63
2021/07/04 05:55:53;;;;;;;6.38;5.97;;;;;;;24.31;49.32;96587.84;4982442;28;20038;-64
2021/07/04 05:58:19;;;;;;;7.03;6.53;;;;;;;23.92;49.41;96518.00;4982629;28;20038;-62
2021/07/04 06:00:45;;;;;;;6.47;6.07;;;;;;;24.13;49.05;96556.69;4982661;28;20039;-63
2021/07/04 06:03:10;;;;;;;6.68;6.03;;;;;;;24.56;48.42;96579.81;4982911;28;20031;-62
2021/07/04 06:05:36;;;;;;;6.95;6.45;;;;;;;24.58;49.26;96594.25;4984607;28;20053;-63
2021/07/04 06:08:02;;;;;;;6.90;6.28;;;;;;;24.21;49.69;96581.41;4984200;28;20034;-62
2021/07/04 06:10:28;;;;;;;7.07;6.47;;;;;;;24.22;50.62;96594.28;4982295;28;21004;-62
2021/07/04 06:12:54;;;;;;;6.28;5.80;;;;;;;24.27;49.87;96596.50;4982475;28;20045;-63
2021/07/04 06:15:19;;;;;;;6.43;6.03;;;;;;;24.53;49.34;96585.63;4984376;28;20045;-64
2021/07/04 06:17:45;;;;;;;6.45;6.05;;;;;;;24.32;49.45;96542.06;4982093;28;20534;-61
2021/07/04 06:20:13;;;;;;;6.80;6.20;;;;;;;24.85;49.62;96582.94;4983989;28;20121;-63
2021/07/04 06:22:39;;;;;;;7.22;6.63;;;;;;;24.89;49.30;96580.72;4982329;28;20030;-62
2021/07/04 06:25:07;;;;;;;7.60;6.93;;;;;;;24.22;50.36;96537.66;4984490;28;20057;-63
2021/07/04 06:27:32;;;;;;;8.88;7.18;;;;;;;24.81;49.81;96584.34;4984036;28;20476;-63
2021/07/04 06:29:58;;;;;;;7.35;6.85;;;;;;;24.93;49.90;96584.16;4982319;28;20038;-64
2021/07/04 06:32:23;;;;;;;7.18;6.68;;;;;;;25.31;49.23;96578.69;4984044;28;20038;-62
2021/07/04 06:34:49;;;;;;;7.68;7.07;;;;;;;25.46;48.84;96572.34;4981819;28;20038;-61
2021/07/04 06:37:15;;;;;;;7.53;6.93;;;;;;;25.56;48.74;96565.38;4982006;28;20129;-62
2021/07/04 06:39:40;;;;;;;7.68;7.18;;;;;;;25.26;48.86;96568.00;4981813;28;20045;-61
2021/07/04 06:42:06;;;;;;;8.05;7.25;;;;;;;25.53;47.04;96526.63;4982185;28;20610;-62
2021/07/04 06:44:31;;;;;;;7.80;7.30;;;;;;;26.07;45.00;96560.34;4983954;28;20489;-63
2021/07/04 06:46:57;;;;;;;6.82;6.43;;;;;;;26.13;43.24;96564.09;4982631;28;20030;-63
2021/07/04 06:49:22;;;;;;;7.35;6.75;;;;;;;26.22;42.15;96566.88;4981742;28;20735;-62
2021/07/04 06:51:48;;;;;;;7.65;7.05;;;;;;;26.14;42.92;96566.47;4982484;28;20129;-62
2021/07/04 06:54:14;;;;;;;9.98;7.32;;;;;;;26.26;42.78;96564.63;4985704;28;20424;-62
2021/07/04 06:56:39;;;;;;;9.00;8.30;;;;;;;26.21;44.51;96525.53;4987165;28;20049;-60
2021/07/04 06:59:05;;;;;;;8.73;8.00;;;;;;;26.58;43.96;96560.88;4987443;28;20541;-62
2021/07/04 07:01:31;;;;;;;8.07;7.53;;;;;;;26.56;41.83;96557.72;4986267;28;20038;-61
2021/07/04 07:03:57;;;;;;;7.70;7.10;;;;;;;26.08;41.83;96511.59;4987632;28;20513;-62
2021/07/04 07:06:25;;;;;;;7.72;6.95;;;;;;;26.24;40.78;96552.97;4987521;28;20034;-63
2021/07/04 07:08:50;;;;;;;7.13;6.63;;;;;;;26.08;43.03;96550.56;4987310;28;20046;-62
2021/07/04 07:11:16;;;;;;;8.18;7.57;;;;;;;26.20;42.53;96563.72;4985641;28;20252;-61
2021/07/04 07:13:42;;;;;;;7.70;7.20;;;;;;;26.27;44.44;96557.69;4985219;28;20042;-62
2021/07/04 07:16:07;;;;;;;8.25;7.68;;;;;;;25.95;45.14;96547.97;4986616;28;20069;-61
2021/07/04 07:18:33;;;;;;;8.02;7.45;;;;;;;25.88;46.06;96533.31;4986652;28;20448;-61
2021/07/04 07:20:58;;;;;;;8.07;7.45;;;;;;;25.76;44.40;96486.13;4987078;28;20026;-63
2021/07/04 07:23:24;;;;;;;7.93;7.32;;;;;;;26.09;44.42;96495.34;5001725;28;20080;-64
2021/07/04 07:25:51;;;;;;;8.07;7.47;;;;;;;26.35;44.01;96541.84;4984948;28;20057;-61
2021/07/04 07:28:17;;;;;;;8.35;7.72;;;;;;;26.46;43.44;96530.69;4986249;28;20076;-62
2021/07/04 07:30:42;;;;;;;8.32;7.78;;;;;;;26.46;42.77;96525.00;4984983;28;20042;-61
2021/07/04 07:33:07;;;;;;;7.70;7.10;;;;;;;26.05;43.42;96491.94;4984936;28;20865;-61
2021/07/04 07:35:33;;;;;;;7.95;7.45;;;;;;;26.35;43.02;96519.13;4984941;28;20042;-62
2021/07/04 07:38:03;;;;;;;7.93;7.32;;;;;;;26.02;42.47;96495.75;4986535;28;20108;-63
2021/07/04 07:40:35;;;;;;;6.60;6.18;;;;;;;26.15;41.22;96527.47;4985190;28;20034;-62
2021/07/04 07:43:01;;;;;;;7.00;6.50;;;;;;;25.98;41.35;96483.75;4984826;28;20509;-62
2021/07/04 07:45:27;;;;;;;7.28;6.70;;;;;;;26.55;41.15;96524.91;4986604;28;20504;-62
2021/07/04 07:47:52;;;;;;;7.00;6.50;;;;;;;26.69;39.94;96509.97;4985168;28;20149;-62
2021/07/04 07:50:19;;;;;;;7.43;6.72;;;;;;;27.06;39.49;96510.34;4984626;28;20412;-62
2021/07/04 07:52:44;;;;;;;7.47;6.85;;;;;;;27.07;39.82;96495.63;4984877;28;20136;-62
2021/07/04 07:55:11;;;;;;;7.53;7.03;;;;;;;27.07;38.99;96512.69;4986162;28;20486;-61
2021/07/04 07:57:37;;;;;;;8.05;7.25;;;;;;;27.16;39.24;96509.72;4984876;28;20061;-63
2021/07/04 08:00:06;;;;;;;8.82;8.05;;;;;;;26.93;39.72;96490.75;4986407;28;20038;-62
2021/07/04 08:02:31;;;;;;;7.88;7.38;;;;;;;27.19;39.92;96517.28;4984317;28;20488;-62
2021/07/04 08:04:58;;;;;;;7.90;7.18;;;;;;;27.17;40.11;96516.22;4984857;28;20408;-62
2021/07/04 08:07:24;;;;;;;8.43;7.65;;;;;;;26.94;40.14;96475.25;4985909;28;20042;-63
2021/07/04 08:09:49;;;;;;;8.48;7.75;;;;;;;27.09;41.23;96517.88;4984741;28;20046;-63
2021/07/04 08:12:15;;;;;;;9.55;8.77;;;;;;;27.17;40.89;96521.91;4984796;28;20086;-61
2021/07/04 08:14:40;;;;;;;9.32;8.55;;;;;;;27.01;41.84;96508.97;4984783;28;20067;-63
2021/07/04 08:17:06;;;;;;;9.32;7.88;;;;;;;27.19;42.44;96517.28;4985579;28;20077;-62
2021/07/04 08:19:31;;;;;;;8.68;7.90;;;;;;;27.51;41.02;96512.63;4984824;28;20042;-62
2021/07/04 08:21:57;;;;;;;8.70;7.95;;;;;;;27.43;40.37;96466.72;4983946;28;20093;-62
2021/07/04 08:24:22;;;;;;;8.00;7.18;;;;;;;27.98;38.40;96507.34;4983986;28;20034;-62
2021/07/04 08:26:48;;;;;;;9.25;8.50;;;;;;;28.18;36.83;96504.50;4983886;28;20500;-62
2021/07/04 08:29:13;;;;;;;7.50;6.85;;;;;;;28.08;37.73;96460.38;4983957;28;20061;-64
2021/07/04 08:31:39;;;;;;;9.02;8.23;;;;;;;28.44;37.05;96498.06;4983989;28;20072;-62
2021/07/04 08:34:04;;;;;;;7.88;7.18;;;;;;;27.63;38.15;96477.38;4992653;28;20069;-62
2021/07/04 08:36:32;;;;;;;8.50;7.80;;;;;;;27.12;39.18;96499.84;4985420;28;20133;-61
2021/07/04 08:38:58;;;;;;;8.10;7.47;;;;;;;27.77;38.52;96502.91;4985617;28;20041;-62
2021/07/04 08:41:24;;;;;;;7.50;6.97;;;;;;;27.91;37.28;96473.63;4983607;28;20058;-62
2021/07/04 08:43:52;;;;;;;8.40;7.70;;;;;;;27.99;37.47;96503.25;4983246;28;20042;-63
2021/07/04 08:46:17;;;;;;;8.95;7.75;;;;;;;27.82;38.27;96493.66;4983727;28;20069;-63
2021/07/04 08:48:43;;;;;;;8.60;7.95;;;;;;;27.53;37.82;96448.25;4985351;28;20062;-62
2021/07/04 08:51:10;;;;;;;8.55;7.95;;;;;;;27.62;37.63;96513.56;4982963;28;20046;-62
2021/07/04 08:53:35;;;;;;;7.78;7.15;;;;;;;27.80;36.81;96490.53;4982884;28;20506;-62
2021/07/04 08:56:01;;;;;;;8.45;7.25;;;;;;;27.71;36.38;96459.34;4983253;28;20053;-62
2021/07/04 08:58:27;;;;;;;8.00;7.32;;;;;;;27.83;36.21;96478.16;4983208;28;20038;-63
2021/07/04 09:01:18;;;;;;;8.02;6.82;;;;;;;28.26;36.29;96481.28;4984842;28;20045;-64
2021/07/04 09:04:06;;;;;;;7.85;7.13;;;;;;;28.70;35.83;96484.63;4983359;28;20141;-62
2021/07/04 09:06:46;;;;;;;8.32;7.50;;;;;;;28.81;35.30;96476.16;4984910;28;20433;-63
2021/07/04 09:09:28;;;;;;;8.38;7.82;;;;;;;28.88;35.58;96472.88;4983098;28;20128;-63
2021/07/04 09:12:11;;;;;;;8.05;7.40;;;;;;;27.96;36.92;96404.53;4983838;28;20100;-62
2021/07/04 09:14:41;;;;;;;12.45;8.05;;;;;;;28.27;34.90;96471.44;4982369;28;20042;-64
2021/07/04 09:17:10;;;;;;;7.05;6.65;;;;;;;28.29;34.50;96451.78;4984499;28;20057;-63
2021/07/04 09:19:38;;;;;;;7.70;6.95;;;;;;;28.31;33.28;96403.63;4983333;28;20069;-63
2021/07/04 09:22:09;;;;;;;7.82;7.22;;;;;;;28.69;34.43;96463.09;4984404;28;20053;-62
2021/07/04 09:24:41;;;;;;;8.20;7.40;;;;;;;27.50;33.96;96249.28;4983097;28;20030;-63
2021/07/04 09:27:07;;;;;;;8.13;7.65;;;;;;;28.90;33.64;96473.13;4982468;28;20038;-62
2021/07/04 09:29:47;;;;;;;7.82;7.18;;;;;;;28.91;34.69;96458.34;4982732;28;20560;-63
2021/07/04 09:32:21;;;;;;;8.13;7.53;;;;;;;28.85;34.27;96459.63;4982992;28;20116;-62
2021/07/04 09:35:03;;;;;;;8.35;7.65;;;;;;;28.81;35.38;96461.91;5000471;28;20416;-63
2021/07/04 09:37:38;;;;;;;8.32;7.30;;;;;;;29.03;34.43;96448.63;5002378;28;20491;-64
2021/07/04 09:40:13;;;;;;;7.60;7.03;;;;;;;29.04;32.76;96438.75;5000662;28;20536;-63
2021/07/04 09:42:57;;;;;;;7.88;7.28;;;;;;;29.50;33.43;96459.34;5002726;28;20025;-63
2021/07/04 09:45:25;;;;;;;8.27;7.63;;;;;;;29.34;33.69;96450.66;5003837;28;20141;-63
2021/07/04 09:47:56;;;;;;;8.32;7.72;;;;;;;29.36;33.71;96453.78;5003420;28;20135;-62
2021/07/04 09:50:22;;;;;;;8.13;7.40;;;;;;;29.25;33.23;96408.06;5003605;28;20073;-63
2021/07/04 09:52:59;;;;;;;7.30;6.80;;;;;;;28.94;33.50;96385.28;4988889;28;20062;-62
2021/07/04 09:55:25;;;;;;;8.43;7.68;;;;;;;29.48;31.92;96453.34;5002318;28;20121;-62
2021/07/04 09:57:57;;;;;;;7.88;7.38;;;;;;;29.64;32.85;96446.19;5002367;28;20117;-64
2021/07/04 10:00:27;;;;;;;8.32;7.55;;;;;;;29.52;32.64;96445.34;5002600;28;20603;-62
2021/07/04 10:03:22;;;;;;;8.27;7.68;;;;;;;29.44;33.71;96440.63;5002626;28;20084;-62
2021/07/04 10:05:54;;;;;;;8.40;7.47;;;;;;;29.40;32.66;96437.22;5002573;28;20064;-65
2021/07/04 10:08:20;;;;;;;8.13;7.50;;;;;;;29.19;33.44;96455.75;5001964;28;20148;-62
2021/07/04 10:10:46;;;;;;;8.20;7.63;;;;;;;28.74;34.28;96450.97;5003863;28;20058;-62
2021/07/04 10:13:12;;;;;;;7.82;7.32;;;;;;;28.44;34.06;96407.63;5003543;28;20034;-61
2021/07/04 10:15:40;;;;;;;8.27;7.78;;;;;;;28.39;34.92;96438.94;5003752;28;20038;-64
2021/07/04 10:18:09;;;;;;;9.05;8.15;;;;;;;28.69;34.80;96443.16;5001537;28;20042;-62
2021/07/04 10:20:36;;;;;;;7.53;7.00;;;;;;;28.73;34.06;96438.78;5003954;28;20121;-63
2021/07/04 10:23:05;;;;;;;7.55;6.97;;;;;;;28.62;33.29;96383.72;5002013;28;20034;-64
2021/07/04 10:25:30;;;;;;;8.13;7.53;;;;;;;29.19;33.65;96438.66;5002239;28;20034;-63
2021/07/04 10:27:57;;;;;;;8.07;7.57;;;;;;;28.81;33.28;96362.09;5006336;28;20033;-62
2021/07/04 10:30:23;;;;;;;7.45;7.05;;;;;;;29.18;33.16;96437.09;5007802;28;20050;-62
2021/07/04 10:33:16;;;;;;;8.38;7.63;;;;;;;28.95;34.19;96436.09;5006739;28;20034;-63
2021/07/04 10:36:08;;;;;;;8.30;7.60;;;;;;;28.39;33.09;96376.25;5002844;28;20042;-63
2021/07/04 10:38:39;;;;;;;8.10;7.50;;;;;;;28.56;33.19;96414.25;4986558;28;20054;-62
2021/07/04 10:41:13;;;;;;;7.78;7.28;;;;;;;28.37;33.89;96362.50;4986385;28;20029;-63
2021/07/04 10:43:52;;;;;;;7.70;7.10;;;;;;;28.94;33.10;96428.06;4987905;28;20425;-66
2021/07/04 10:46:19;;;;;;;8.82;8.13;;;;;;;29.35;32.84;96423.72;4987811;28;20023;-62
2021/07/04 10:48:55;;;;;;;8.07;7.32;;;;;;;29.00;32.47;96404.00;4988070;28;20058;-63
2021/07/04 10:51:22;;;;;;;7.93;7.32;;;;;;;29.24;33.73;96406.50;4985942;28;20117;-64
2021/07/04 10:53:48;;;;;;;7.88;7.28;;;;;;;29.46;32.55;96429.47;4987801;28;20045;-64
2021/07/04 10:56:35;;;;;;;7.38;6.88;;;;;;;29.35;32.15;96423.72;4986078;28;20885;-64
2021/07/04 10:59:10;;;;;;;10.50;6.93;;;;;;;29.67;31.76;96404.44;4987325;28;20042;-62
2021/07/04 11:01:48;;;;;;;7.80;7.28;;;;;;;29.91;30.05;96402.72;4987354;28;20612;-63
2021/07/04 11:04:32;;;;;;;7.88;7.38;;;;;;;29.74;31.52;96393.31;4987720;28;20429;-62
2021/07/04 11:07:02;;;;;;;9.02;8.23;;;;;;;29.15;34.26;96415.28;4987601;28;20034;-62
2021/07/04 11:09:53;;;;;;;8.50;7.70;;;;;;;28.75;34.44;96416.25;4985697;28;20042;-63
2021/07/04 11:12:29;;;;;;;8.52;7.28;;;;;;;28.85;35.86;96425.41;4985396;28;20080;-63
2021/07/04 11:15:27;;;;;;;8.73;7.93;;;;;;;28.79;35.31;96404.59;4985606;28;20046;-63
2021/07/04 11:17:55;;;;;;;8.98;8.07;;;;;;;28.79;35.76;96411.09;4974882;28;20527;-62
2021/07/04 11:20:22;;;;;;;9.02;7.95;;;;;;;29.09;33.73;96415.22;4984980;28;20064;-63
2021/07/04 11:23:02;;;;;;;7.13;6.63;;;;;;;28.73;32.18;96418.03;4986777;28;20041;-63
2021/07/04 11:25:43;;;;;;;7.05;6.55;;;;;;;28.51;33.22;96426.38;4985526;28;20034;-62
2021/07/04 11:28:15;;;;;;;6.95;6.28;;;;;;;28.56;33.42;96419.97;4985261;28;20105;-63
2021/07/04 11:30:42;;;;;;;7.07;6.63;;;;;;;28.42;32.68;96409.44;4985171;28;20050;-62
2021/07/04 11:33:29;;;;;;;7.35;6.70;;;;;;;28.46;32.23;96427.06;4988486;28;20025;-63
2021/07/04 11:36:27;;;;;;;7.53;7.03;;;;;;;28.26;33.49;96424.28;5004906;28;20531;-63
2021/07/04 11:38:57;;;;;;;7.22;6.72;;;;;;;28.22;33.49;96418.06;5002863;28;20081;-63